Pleasant Hall, Pennsylvania
Current Conditions -  °F | °C
As of 4:53 AM on Friday 24 Oct 2014 (Local Time) from KHGR Reporting Station
Clear Clear  
Wind Chill: 52°   Ceiling: Unl
Heat Index: 52°   Visibility: 10mi
Dew Point: 42°   Wind: 9mph
Humidity: 69%   Direction: 290°WNW
Pressure: 29.97"   Gusts: NA
Location:  40.05°N, 77.65°W
Report Text: KHGR 240853Z AUTO 29008KT 10SM CLR 11/06 A2997 RMK AO2 SLP158 T01110056 53012
Loading
Personal Weather Stations






























Interactive Weather Map
Tropical Storm Tracking
New forecast layout! Learn more

10-Day Weather Forecast

Advertisements
Track Severe Weather on mobile